sensor_id;sensor_type;location;lat;lon;timestamp;P1;durP1;ratioP1;P2;durP2;ratioP2
14611;SDS011;7392;52.078;11.650;2022-09-09T00:00:20;1.33;;;1.23;;
14611;SDS011;7392;52.078;11.650;2022-09-09T00:02:50;1.20;;;1.10;;
14611;SDS011;7392;52.078;11.650;2022-09-09T00:05:28;1.37;;;1.27;;
14611;SDS011;7392;52.078;11.650;2022-09-09T00:08:02;1.17;;;1.10;;
14611;SDS011;7392;52.078;11.650;2022-09-09T00:10:33;1.20;;;1.10;;
14611;SDS011;7392;52.078;11.650;2022-09-09T00:13:09;1.00;;;1.00;;
14611;SDS011;7392;52.078;11.650;2022-09-09T00:15:46;1.03;;;1.00;;
14611;SDS011;7392;52.078;11.650;2022-09-09T00:18:24;1.10;;;1.00;;
14611;SDS011;7392;52.078;11.650;2022-09-09T00:20:58;0.93;;;0.93;;
14611;SDS011;7392;52.078;11.650;2022-09-09T00:23:31;0.90;;;0.90;;
14611;SDS011;7392;52.078;11.650;2022-09-09T00:26:04;1.10;;;1.00;;
14611;SDS011;7392;52.078;11.650;2022-09-09T00:28:40;0.87;;;0.80;;
14611;SDS011;7392;52.078;11.650;2022-09-09T00:31:15;0.80;;;0.80;;
14611;SDS011;7392;52.078;11.650;2022-09-09T00:33:48;0.67;;;0.67;;
14611;SDS011;7392;52.078;11.650;2022-09-09T00:36:18;0.80;;;0.77;;
14611;SDS011;7392;52.078;11.650;2022-09-09T00:38:52;0.70;;;0.70;;
14611;SDS011;7392;52.078;11.650;2022-09-09T00:41:26;0.67;;;0.67;;
14611;SDS011;7392;52.078;11.650;2022-09-09T00:44:12;0.43;;;0.43;;
14611;SDS011;7392;52.078;11.650;2022-09-09T00:46:59;0.47;;;0.47;;
14611;SDS011;7392;52.078;11.650;2022-09-09T00:49:39;0.70;;;0.60;;
14611;SDS011;7392;52.078;11.650;2022-09-09T00:52:23;0.80;;;0.80;;
14611;SDS011;7392;52.078;11.650;2022-09-09T00:55:03;0.60;;;0.60;;
14611;SDS011;7392;52.078;11.650;2022-09-09T00:57:40;0.60;;;0.60;;
14611;SDS011;7392;52.078;11.650;2022-09-09T01:00:19;0.63;;;0.63;;
14611;SDS011;7392;52.078;11.650;2022-09-09T01:02:53;0.90;;;0.80;;
14611;SDS011;7392;52.078;11.650;2022-09-09T01:05:33;0.73;;;0.70;;
14611;SDS011;7392;52.078;11.650;2022-09-09T01:08:07;0.50;;;0.50;;
14611;SDS011;7392;52.078;11.650;2022-09-09T01:10:50;1.10;;;0.90;;
14611;SDS011;7392;52.078;11.650;2022-09-09T01:13:24;0.60;;;0.60;;
14611;SDS011;7392;52.078;11.650;2022-09-09T01:15:58;0.80;;;0.80;;
14611;SDS011;7392;52.078;11.650;2022-09-09T01:18:33;1.00;;;0.90;;
14611;SDS011;7392;52.078;11.650;2022-09-09T01:21:07;1.87;;;1.00;;
14611;SDS011;7392;52.078;11.650;2022-09-09T01:23:48;1.30;;;1.20;;
14611;SDS011;7392;52.078;11.650;2022-09-09T01:26:46;0.93;;;0.90;;
14611;SDS011;7392;52.078;11.650;2022-09-09T01:29:24;2.37;;;1.10;;
14611;SDS011;7392;52.078;11.650;2022-09-09T01:31:53;1.10;;;1.00;;
14611;SDS011;7392;52.078;11.650;2022-09-09T01:34:23;1.30;;;0.80;;
14611;SDS011;7392;52.078;11.650;2022-09-09T01:36:54;0.77;;;0.77;;
14611;SDS011;7392;52.078;11.650;2022-09-09T01:39:26;0.83;;;0.80;;
14611;SDS011;7392;52.078;11.650;2022-09-09T01:42:01;0.90;;;0.77;;
14611;SDS011;7392;52.078;11.650;2022-09-09T01:44:31;0.80;;;0.80;;
14611;SDS011;7392;52.078;11.650;2022-09-09T01:47:00;0.80;;;0.80;;
14611;SDS011;7392;52.078;11.650;2022-09-09T01:49:29;1.33;;;0.80;;
14611;SDS011;7392;52.078;11.650;2022-09-09T01:52:04;0.60;;;0.60;;
14611;SDS011;7392;52.078;11.650;2022-09-09T01:54:36;0.60;;;0.60;;
14611;SDS011;7392;52.078;11.650;2022-09-09T01:57:14;1.20;;;1.10;;
14611;SDS011;7392;52.078;11.650;2022-09-09T01:59:49;1.10;;;1.00;;
14611;SDS011;7392;52.078;11.650;2022-09-09T02:02:23;0.80;;;0.80;;
14611;SDS011;7392;52.078;11.650;2022-09-09T02:05:11;1.10;;;0.87;;
14611;SDS011;7392;52.078;11.650;2022-09-09T02:07:53;1.17;;;1.03;;
14611;SDS011;7392;52.078;11.650;2022-09-09T02:10:36;1.17;;;1.07;;
14611;SDS011;7392;52.078;11.650;2022-09-09T02:13:22;0.60;;;0.60;;
14611;SDS011;7392;52.078;11.650;2022-09-09T02:15:51;1.00;;;0.80;;
14611;SDS011;7392;52.078;11.650;2022-09-09T02:18:24;0.70;;;0.70;;
14611;SDS011;7392;52.078;11.650;2022-09-09T02:20:55;0.60;;;0.50;;
14611;SDS011;7392;52.078;11.650;2022-09-09T02:23:25;0.83;;;0.60;;
14611;SDS011;7392;52.078;11.650;2022-09-09T02:25:54;0.80;;;0.80;;
14611;SDS011;7392;52.078;11.650;2022-09-09T02:28:28;0.63;;;0.63;;
14611;SDS011;7392;52.078;11.650;2022-09-09T02:30:59;0.60;;;0.60;;
14611;SDS011;7392;52.078;11.650;2022-09-09T02:33:35;0.50;;;0.50;;
14611;SDS011;7392;52.078;11.650;2022-09-09T02:36:08;1.20;;;0.70;;
14611;SDS011;7392;52.078;11.650;2022-09-09T02:38:40;0.67;;;0.60;;
14611;SDS011;7392;52.078;11.650;2022-09-09T02:41:17;0.80;;;0.80;;
14611;SDS011;7392;52.078;11.650;2022-09-09T02:43:50;0.80;;;0.70;;
14611;SDS011;7392;52.078;11.650;2022-09-09T02:46:23;0.67;;;0.60;;
14611;SDS011;7392;52.078;11.650;2022-09-09T02:49:00;0.70;;;0.70;;
14611;SDS011;7392;52.078;11.650;2022-09-09T02:51:39;0.70;;;0.70;;
14611;SDS011;7392;52.078;11.650;2022-09-09T02:54:16;0.80;;;0.70;;
14611;SDS011;7392;52.078;11.650;2022-09-09T02:56:51;0.50;;;0.50;;
14611;SDS011;7392;52.078;11.650;2022-09-09T02:59:32;0.50;;;0.50;;
14611;SDS011;7392;52.078;11.650;2022-09-09T03:02:01;0.80;;;0.67;;
14611;SDS011;7392;52.078;11.650;2022-09-09T03:04:30;0.70;;;0.70;;
14611;SDS011;7392;52.078;11.650;2022-09-09T03:06:58;0.93;;;0.80;;
14611;SDS011;7392;52.078;11.650;2022-09-09T03:09:26;0.93;;;0.80;;
14611;SDS011;7392;52.078;11.650;2022-09-09T03:11:55;0.63;;;0.60;;
14611;SDS011;7392;52.078;11.650;2022-09-09T03:14:24;0.73;;;0.60;;
14611;SDS011;7392;52.078;11.650;2022-09-09T03:16:54;0.53;;;0.53;;
14611;SDS011;7392;52.078;11.650;2022-09-09T03:19:23;0.80;;;0.80;;
14611;SDS011;7392;52.078;11.650;2022-09-09T03:21:52;0.97;;;0.87;;
14611;SDS011;7392;52.078;11.650;2022-09-09T03:24:20;0.57;;;0.50;;
14611;SDS011;7392;52.078;11.650;2022-09-09T03:26:49;0.80;;;0.80;;
14611;SDS011;7392;52.078;11.650;2022-09-09T03:29:17;0.97;;;0.87;;
14611;SDS011;7392;52.078;11.650;2022-09-09T03:31:45;0.87;;;0.80;;
14611;SDS011;7392;52.078;11.650;2022-09-09T03:34:15;0.63;;;0.60;;
14611;SDS011;7392;52.078;11.650;2022-09-09T03:36:43;0.67;;;0.50;;
14611;SDS011;7392;52.078;11.650;2022-09-09T03:39:11;0.70;;;0.70;;
14611;SDS011;7392;52.078;11.650;2022-09-09T03:41:41;0.83;;;0.70;;
14611;SDS011;7392;52.078;11.650;2022-09-09T03:44:13;0.60;;;0.60;;
14611;SDS011;7392;52.078;11.650;2022-09-09T03:46:42;0.50;;;0.50;;
14611;SDS011;7392;52.078;11.650;2022-09-09T03:49:09;0.67;;;0.67;;
14611;SDS011;7392;52.078;11.650;2022-09-09T03:51:39;0.30;;;0.30;;
14611;SDS011;7392;52.078;11.650;2022-09-09T03:54:09;0.50;;;0.50;;
14611;SDS011;7392;52.078;11.650;2022-09-09T03:56:37;0.67;;;0.67;;
14611;SDS011;7392;52.078;11.650;2022-09-09T03:59:06;0.90;;;0.60;;
14611;SDS011;7392;52.078;11.650;2022-09-09T04:01:35;0.60;;;0.60;;
14611;SDS011;7392;52.078;11.650;2022-09-09T04:04:02;0.70;;;0.60;;
14611;SDS011;7392;52.078;11.650;2022-09-09T04:06:30;0.60;;;0.53;;
14611;SDS011;7392;52.078;11.650;2022-09-09T04:08:59;0.60;;;0.47;;
14611;SDS011;7392;52.078;11.650;2022-09-09T04:11:30;0.63;;;0.63;;
14611;SDS011;7392;52.078;11.650;2022-09-09T04:13:59;1.13;;;0.60;;
14611;SDS011;7392;52.078;11.650;2022-09-09T04:16:28;0.50;;;0.50;;
14611;SDS011;7392;52.078;11.650;2022-09-09T04:18:56;0.93;;;0.70;;
14611;SDS011;7392;52.078;11.650;2022-09-09T04:21:25;0.50;;;0.50;;
14611;SDS011;7392;52.078;11.650;2022-09-09T04:23:54;0.50;;;0.50;;
14611;SDS011;7392;52.078;11.650;2022-09-09T04:26:24;1.00;;;0.60;;
14611;SDS011;7392;52.078;11.650;2022-09-09T04:28:51;0.60;;;0.60;;
14611;SDS011;7392;52.078;11.650;2022-09-09T04:31:21;0.67;;;0.50;;
14611;SDS011;7392;52.078;11.650;2022-09-09T04:33:53;0.70;;;0.70;;
14611;SDS011;7392;52.078;11.650;2022-09-09T04:36:25;0.40;;;0.40;;
14611;SDS011;7392;52.078;11.650;2022-09-09T04:38:58;0.93;;;0.63;;
14611;SDS011;7392;52.078;11.650;2022-09-09T04:41:27;0.50;;;0.50;;
14611;SDS011;7392;52.078;11.650;2022-09-09T04:43:55;0.87;;;0.60;;
14611;SDS011;7392;52.078;11.650;2022-09-09T04:46:23;0.60;;;0.53;;
14611;SDS011;7392;52.078;11.650;2022-09-09T04:48:51;0.50;;;0.30;;
14611;SDS011;7392;52.078;11.650;2022-09-09T04:51:21;0.40;;;0.40;;
14611;SDS011;7392;52.078;11.650;2022-09-09T04:53:51;0.97;;;0.80;;
14611;SDS011;7392;52.078;11.650;2022-09-09T04:56:20;0.47;;;0.47;;
14611;SDS011;7392;52.078;11.650;2022-09-09T04:58:56;0.50;;;0.50;;
14611;SDS011;7392;52.078;11.650;2022-09-09T05:01:37;0.47;;;0.47;;
14611;SDS011;7392;52.078;11.650;2022-09-09T05:04:05;1.20;;;0.90;;
14611;SDS011;7392;52.078;11.650;2022-09-09T05:06:33;1.07;;;0.77;;
14611;SDS011;7392;52.078;11.650;2022-09-09T05:09:03;0.60;;;0.60;;
14611;SDS011;7392;52.078;11.650;2022-09-09T05:11:32;0.47;;;0.47;;
14611;SDS011;7392;52.078;11.650;2022-09-09T05:14:23;1.13;;;0.50;;
14611;SDS011;7392;52.078;11.650;2022-09-09T05:16:51;0.60;;;0.60;;
14611;SDS011;7392;52.078;11.650;2022-09-09T05:19:21;0.60;;;0.57;;
14611;SDS011;7392;52.078;11.650;2022-09-09T05:21:50;1.30;;;0.73;;
14611;SDS011;7392;52.078;11.650;2022-09-09T05:24:24;1.47;;;1.20;;
14611;SDS011;7392;52.078;11.650;2022-09-09T05:26:54;1.47;;;1.00;;
14611;SDS011;7392;52.078;11.650;2022-09-09T05:29:27;1.03;;;0.70;;
14611;SDS011;7392;52.078;11.650;2022-09-09T05:31:56;1.00;;;0.87;;
14611;SDS011;7392;52.078;11.650;2022-09-09T05:34:24;1.00;;;0.90;;
14611;SDS011;7392;52.078;11.650;2022-09-09T05:36:52;2.03;;;1.10;;
14611;SDS011;7392;52.078;11.650;2022-09-09T05:39:21;2.33;;;1.20;;
14611;SDS011;7392;52.078;11.650;2022-09-09T05:41:50;2.00;;;1.00;;
14611;SDS011;7392;52.078;11.650;2022-09-09T05:44:18;1.93;;;1.50;;
14611;SDS011;7392;52.078;11.650;2022-09-09T05:46:47;1.90;;;1.37;;
14611;SDS011;7392;52.078;11.650;2022-09-09T05:49:16;1.57;;;1.17;;
14611;SDS011;7392;52.078;11.650;2022-09-09T05:51:44;1.23;;;1.10;;
14611;SDS011;7392;52.078;11.650;2022-09-09T05:54:13;2.30;;;1.30;;
14611;SDS011;7392;52.078;11.650;2022-09-09T05:56:46;2.00;;;1.00;;
14611;SDS011;7392;52.078;11.650;2022-09-09T05:59:17;1.13;;;1.00;;
14611;SDS011;7392;52.078;11.650;2022-09-09T06:01:45;3.37;;;1.30;;
14611;SDS011;7392;52.078;11.650;2022-09-09T06:04:23;1.70;;;1.07;;
14611;SDS011;7392;52.078;11.650;2022-09-09T06:06:52;1.40;;;1.00;;
14611;SDS011;7392;52.078;11.650;2022-09-09T06:09:21;2.00;;;1.00;;
14611;SDS011;7392;52.078;11.650;2022-09-09T06:11:49;1.60;;;0.90;;
14611;SDS011;7392;52.078;11.650;2022-09-09T06:14:18;2.40;;;1.13;;
14611;SDS011;7392;52.078;11.650;2022-09-09T06:16:49;2.80;;;1.80;;
14611;SDS011;7392;52.078;11.650;2022-09-09T06:19:20;2.53;;;2.20;;
14611;SDS011;7392;52.078;11.650;2022-09-09T06:21:49;2.63;;;2.30;;
14611;SDS011;7392;52.078;11.650;2022-09-09T06:24:17;3.10;;;2.33;;
14611;SDS011;7392;52.078;11.650;2022-09-09T06:26:46;3.17;;;2.20;;
14611;SDS011;7392;52.078;11.650;2022-09-09T06:29:19;2.17;;;1.87;;
14611;SDS011;7392;52.078;11.650;2022-09-09T06:31:47;2.50;;;1.63;;
14611;SDS011;7392;52.078;11.650;2022-09-09T06:34:19;1.73;;;1.40;;
14611;SDS011;7392;52.078;11.650;2022-09-09T06:36:53;1.87;;;1.30;;
14611;SDS011;7392;52.078;11.650;2022-09-09T06:39:26;1.23;;;1.00;;
14611;SDS011;7392;52.078;11.650;2022-09-09T06:41:54;1.10;;;1.00;;
14611;SDS011;7392;52.078;11.650;2022-09-09T06:44:42;1.10;;;0.90;;
14611;SDS011;7392;52.078;11.650;2022-09-09T06:47:16;1.00;;;0.90;;
14611;SDS011;7392;52.078;11.650;2022-09-09T06:49:46;1.27;;;1.10;;
14611;SDS011;7392;52.078;11.650;2022-09-09T06:52:16;1.30;;;1.00;;
14611;SDS011;7392;52.078;11.650;2022-09-09T06:54:46;2.43;;;0.90;;
14611;SDS011;7392;52.078;11.650;2022-09-09T06:57:15;1.07;;;0.90;;
14611;SDS011;7392;52.078;11.650;2022-09-09T07:00:04;1.10;;;1.00;;
14611;SDS011;7392;52.078;11.650;2022-09-09T07:02:36;1.43;;;1.10;;
14611;SDS011;7392;52.078;11.650;2022-09-09T07:05:08;1.03;;;0.90;;
14611;SDS011;7392;52.078;11.650;2022-09-09T07:07:46;1.20;;;1.00;;
14611;SDS011;7392;52.078;11.650;2022-09-09T07:10:17;0.97;;;0.87;;
14611;SDS011;7392;52.078;11.650;2022-09-09T07:12:49;0.60;;;0.60;;
14611;SDS011;7392;52.078;11.650;2022-09-09T07:15:20;1.13;;;0.80;;
14611;SDS011;7392;52.078;11.650;2022-09-09T07:17:49;0.90;;;0.77;;
14611;SDS011;7392;52.078;11.650;2022-09-09T07:20:17;0.70;;;0.70;;
14611;SDS011;7392;52.078;11.650;2022-09-09T07:22:46;1.20;;;0.80;;
14611;SDS011;7392;52.078;11.650;2022-09-09T07:25:14;1.47;;;0.90;;
14611;SDS011;7392;52.078;11.650;2022-09-09T07:27:46;1.10;;;1.00;;
14611;SDS011;7392;52.078;11.650;2022-09-09T07:30:22;1.90;;;1.10;;
14611;SDS011;7392;52.078;11.650;2022-09-09T07:32:56;1.87;;;1.00;;
14611;SDS011;7392;52.078;11.650;2022-09-09T07:35:25;2.17;;;1.10;;
14611;SDS011;7392;52.078;11.650;2022-09-09T07:37:55;2.27;;;1.30;;
14611;SDS011;7392;52.078;11.650;2022-09-09T07:40:24;3.33;;;1.30;;
14611;SDS011;7392;52.078;11.650;2022-09-09T07:46:25;1.93;;;1.33;;
14611;SDS011;7392;52.078;11.650;2022-09-09T07:48:58;1.53;;;1.20;;
14611;SDS011;7392;52.078;11.650;2022-09-09T07:51:56;4.00;;;1.10;;
14611;SDS011;7392;52.078;11.650;2022-09-09T07:58:09;4.13;;;1.27;;
14611;SDS011;7392;52.078;11.650;2022-09-09T08:00:47;1.40;;;1.10;;
14611;SDS011;7392;52.078;11.650;2022-09-09T08:03:56;1.90;;;1.00;;
14611;SDS011;7392;52.078;11.650;2022-09-09T08:07:13;2.40;;;1.10;;
14611;SDS011;7392;52.078;11.650;2022-09-09T08:10:20;2.53;;;1.10;;
14611;SDS011;7392;52.078;11.650;2022-09-09T08:13:03;2.33;;;1.27;;
14611;SDS011;7392;52.078;11.650;2022-09-09T08:16:19;3.70;;;1.50;;
14611;SDS011;7392;52.078;11.650;2022-09-09T08:18:49;4.70;;;1.70;;
14611;SDS011;7392;52.078;11.650;2022-09-09T08:21:19;4.07;;;1.83;;
14611;SDS011;7392;52.078;11.650;2022-09-09T08:23:50;2.93;;;1.27;;
14611;SDS011;7392;52.078;11.650;2022-09-09T08:26:24;3.73;;;1.30;;
14611;SDS011;7392;52.078;11.650;2022-09-09T08:28:54;3.10;;;1.30;;
14611;SDS011;7392;52.078;11.650;2022-09-09T08:31:27;2.00;;;1.20;;
14611;SDS011;7392;52.078;11.650;2022-09-09T08:33:56;2.93;;;1.20;;
14611;SDS011;7392;52.078;11.650;2022-09-09T08:36:27;2.27;;;1.30;;
14611;SDS011;7392;52.078;11.650;2022-09-09T08:38:56;2.27;;;1.10;;
14611;SDS011;7392;52.078;11.650;2022-09-09T08:44:57;2.03;;;1.17;;
14611;SDS011;7392;52.078;11.650;2022-09-09T08:47:42;2.97;;;1.40;;
14611;SDS011;7392;52.078;11.650;2022-09-09T08:50:21;2.67;;;1.23;;
14611;SDS011;7392;52.078;11.650;2022-09-09T08:53:02;4.00;;;1.53;;
14611;SDS011;7392;52.078;11.650;2022-09-09T08:55:39;2.77;;;1.13;;
14611;SDS011;7392;52.078;11.650;2022-09-09T08:58:12;5.07;;;1.43;;
14611;SDS011;7392;52.078;11.650;2022-09-09T09:00:49;2.13;;;1.20;;
14611;SDS011;7392;52.078;11.650;2022-09-09T09:03:29;3.43;;;1.33;;
14611;SDS011;7392;52.078;11.650;2022-09-09T09:06:11;3.97;;;1.40;;
14611;SDS011;7392;52.078;11.650;2022-09-09T09:08:53;5.57;;;1.20;;
14611;SDS011;7392;52.078;11.650;2022-09-09T09:11:34;2.60;;;1.30;;
14611;SDS011;7392;52.078;11.650;2022-09-09T09:14:07;5.53;;;1.30;;
14611;SDS011;7392;52.078;11.650;2022-09-09T09:16:41;3.47;;;1.30;;
14611;SDS011;7392;52.078;11.650;2022-09-09T09:19:17;2.87;;;1.47;;
14611;SDS011;7392;52.078;11.650;2022-09-09T09:21:50;3.37;;;1.20;;
14611;SDS011;7392;52.078;11.650;2022-09-09T09:24:23;3.43;;;1.43;;
14611;SDS011;7392;52.078;11.650;2022-09-09T09:27:07;2.53;;;1.33;;
14611;SDS011;7392;52.078;11.650;2022-09-09T09:29:45;4.40;;;1.57;;
14611;SDS011;7392;52.078;11.650;2022-09-09T09:32:55;2.47;;;1.20;;
14611;SDS011;7392;52.078;11.650;2022-09-09T09:36:39;2.53;;;0.90;;
14611;SDS011;7392;52.078;11.650;2022-09-09T09:39:21;1.70;;;0.97;;
14611;SDS011;7392;52.078;11.650;2022-09-09T09:42:22;2.40;;;1.00;;
14611;SDS011;7392;52.078;11.650;2022-09-09T09:44:55;2.90;;;0.97;;
14611;SDS011;7392;52.078;11.650;2022-09-09T09:47:23;3.57;;;1.30;;
14611;SDS011;7392;52.078;11.650;2022-09-09T09:50:02;3.23;;;1.00;;
14611;SDS011;7392;52.078;11.650;2022-09-09T09:52:37;3.07;;;1.20;;
14611;SDS011;7392;52.078;11.650;2022-09-09T09:55:11;2.73;;;1.27;;
14611;SDS011;7392;52.078;11.650;2022-09-09T09:57:44;3.57;;;1.27;;
14611;SDS011;7392;52.078;11.650;2022-09-09T10:00:13;2.50;;;0.90;;
14611;SDS011;7392;52.078;11.650;2022-09-09T10:03:01;4.03;;;1.30;;
14611;SDS011;7392;52.078;11.650;2022-09-09T10:05:32;3.47;;;1.20;;
14611;SDS011;7392;52.078;11.650;2022-09-09T10:08:11;4.43;;;1.43;;
14611;SDS011;7392;52.078;11.650;2022-09-09T10:10:42;2.57;;;1.10;;
14611;SDS011;7392;52.078;11.650;2022-09-09T10:13:25;2.67;;;1.27;;
14611;SDS011;7392;52.078;11.650;2022-09-09T10:15:59;3.87;;;1.33;;
14611;SDS011;7392;52.078;11.650;2022-09-09T10:18:41;3.67;;;0.90;;
14611;SDS011;7392;52.078;11.650;2022-09-09T10:21:25;4.57;;;1.30;;
14611;SDS011;7392;52.078;11.650;2022-09-09T10:24:11;3.43;;;1.03;;
14611;SDS011;7392;52.078;11.650;2022-09-09T10:26:54;2.73;;;1.10;;
14611;SDS011;7392;52.078;11.650;2022-09-09T10:29:30;3.80;;;1.27;;
14611;SDS011;7392;52.078;11.650;2022-09-09T10:32:15;2.27;;;1.00;;
14611;SDS011;7392;52.078;11.650;2022-09-09T10:35:02;2.70;;;1.20;;
14611;SDS011;7392;52.078;11.650;2022-09-09T10:37:48;2.10;;;1.00;;
14611;SDS011;7392;52.078;11.650;2022-09-09T10:40:31;2.70;;;1.00;;
14611;SDS011;7392;52.078;11.650;2022-09-09T10:43:10;1.97;;;1.00;;
14611;SDS011;7392;52.078;11.650;2022-09-09T10:45:49;2.13;;;0.90;;
14611;SDS011;7392;52.078;11.650;2022-09-09T10:48:36;2.20;;;1.17;;
14611;SDS011;7392;52.078;11.650;2022-09-09T10:51:18;2.13;;;1.10;;
14611;SDS011;7392;52.078;11.650;2022-09-09T10:53:52;2.23;;;1.07;;
14611;SDS011;7392;52.078;11.650;2022-09-09T10:56:33;5.00;;;1.20;;
14611;SDS011;7392;52.078;11.650;2022-09-09T10:59:04;2.07;;;0.90;;
14611;SDS011;7392;52.078;11.650;2022-09-09T11:01:37;4.23;;;1.40;;
14611;SDS011;7392;52.078;11.650;2022-09-09T11:04:13;2.47;;;0.93;;
14611;SDS011;7392;52.078;11.650;2022-09-09T11:06:47;4.03;;;1.10;;
14611;SDS011;7392;52.078;11.650;2022-09-09T11:09:19;5.27;;;1.30;;
14611;SDS011;7392;52.078;11.650;2022-09-09T11:11:52;3.03;;;1.10;;
14611;SDS011;7392;52.078;11.650;2022-09-09T11:14:22;3.43;;;1.17;;
14611;SDS011;7392;52.078;11.650;2022-09-09T11:17:03;1.93;;;0.97;;
14611;SDS011;7392;52.078;11.650;2022-09-09T11:19:34;5.47;;;1.33;;
14611;SDS011;7392;52.078;11.650;2022-09-09T11:22:04;2.70;;;1.03;;
14611;SDS011;7392;52.078;11.650;2022-09-09T11:24:51;2.70;;;1.27;;
14611;SDS011;7392;52.078;11.650;2022-09-09T11:27:37;1.90;;;0.90;;
14611;SDS011;7392;52.078;11.650;2022-09-09T11:30:18;3.50;;;1.07;;
14611;SDS011;7392;52.078;11.650;2022-09-09T11:39:07;2.20;;;0.83;;
14611;SDS011;7392;52.078;11.650;2022-09-09T11:41:52;2.57;;;1.13;;
14611;SDS011;7392;52.078;11.650;2022-09-09T11:44:23;3.27;;;1.20;;
14611;SDS011;7392;52.078;11.650;2022-09-09T11:46:56;2.07;;;0.90;;
14611;SDS011;7392;52.078;11.650;2022-09-09T11:49:26;3.03;;;1.00;;
14611;SDS011;7392;52.078;11.650;2022-09-09T11:51:55;3.50;;;1.30;;
14611;SDS011;7392;52.078;11.650;2022-09-09T11:54:29;3.37;;;1.37;;
14611;SDS011;7392;52.078;11.650;2022-09-09T11:56:58;5.10;;;1.43;;
14611;SDS011;7392;52.078;11.650;2022-09-09T11:59:28;3.77;;;1.33;;
14611;SDS011;7392;52.078;11.650;2022-09-09T12:01:57;2.43;;;1.00;;
14611;SDS011;7392;52.078;11.650;2022-09-09T12:04:31;3.47;;;1.20;;
14611;SDS011;7392;52.078;11.650;2022-09-09T12:07:04;3.50;;;1.30;;
14611;SDS011;7392;52.078;11.650;2022-09-09T12:09:50;2.30;;;1.07;;
14611;SDS011;7392;52.078;11.650;2022-09-09T12:12:30;1.97;;;0.90;;
14611;SDS011;7392;52.078;11.650;2022-09-09T12:15:20;2.17;;;1.07;;
14611;SDS011;7392;52.078;11.650;2022-09-09T12:17:52;3.53;;;1.07;;
14611;SDS011;7392;52.078;11.650;2022-09-09T12:20:30;3.23;;;1.23;;
14611;SDS011;7392;52.078;11.650;2022-09-09T12:23:08;1.73;;;1.00;;
14611;SDS011;7392;52.078;11.650;2022-09-09T12:25:48;2.07;;;1.00;;
14611;SDS011;7392;52.078;11.650;2022-09-09T12:31:29;2.53;;;1.17;;
14611;SDS011;7392;52.078;11.650;2022-09-09T12:34:04;2.97;;;1.10;;
14611;SDS011;7392;52.078;11.650;2022-09-09T12:36:37;2.37;;;0.90;;
14611;SDS011;7392;52.078;11.650;2022-09-09T12:39:10;2.53;;;0.90;;
14611;SDS011;7392;52.078;11.650;2022-09-09T12:41:51;2.40;;;1.00;;
14611;SDS011;7392;52.078;11.650;2022-09-09T12:44:23;1.93;;;0.80;;
14611;SDS011;7392;52.078;11.650;2022-09-09T12:46:55;2.07;;;0.90;;
14611;SDS011;7392;52.078;11.650;2022-09-09T12:49:27;2.63;;;1.07;;
14611;SDS011;7392;52.078;11.650;2022-09-09T12:52:01;3.63;;;1.27;;
14611;SDS011;7392;52.078;11.650;2022-09-09T12:54:32;2.13;;;0.90;;
14611;SDS011;7392;52.078;11.650;2022-09-09T12:57:02;3.15;;;1.20;;
14611;SDS011;7392;52.078;11.650;2022-09-09T12:59:34;2.65;;;1.00;;
14611;SDS011;7392;52.078;11.650;2022-09-09T13:02:11;5.25;;;1.65;;
14611;SDS011;7392;52.078;11.650;2022-09-09T13:04:46;3.10;;;1.27;;
14611;SDS011;7392;52.078;11.650;2022-09-09T13:07:14;3.65;;;1.42;;
14611;SDS011;7392;52.078;11.650;2022-09-09T13:09:42;1.93;;;0.97;;
14611;SDS011;7392;52.078;11.650;2022-09-09T13:12:13;2.53;;;1.10;;
14611;SDS011;7392;52.078;11.650;2022-09-09T13:14:44;2.70;;;0.77;;
14611;SDS011;7392;52.078;11.650;2022-09-09T13:17:19;2.33;;;1.02;;
14611;SDS011;7392;52.078;11.650;2022-09-09T13:19:49;2.75;;;1.00;;
14611;SDS011;7392;52.078;11.650;2022-09-09T13:22:23;2.08;;;0.98;;
14611;SDS011;7392;52.078;11.650;2022-09-09T13:25:00;2.13;;;1.10;;
14611;SDS011;7392;52.078;11.650;2022-09-09T13:27:31;5.60;;;1.10;;
14611;SDS011;7392;52.078;11.650;2022-09-09T13:30:00;2.60;;;0.93;;
14611;SDS011;7392;52.078;11.650;2022-09-09T13:32:30;2.03;;;1.00;;
14611;SDS011;7392;52.078;11.650;2022-09-09T13:34:58;2.17;;;0.77;;
14611;SDS011;7392;52.078;11.650;2022-09-09T13:37:28;2.15;;;1.08;;
14611;SDS011;7392;52.078;11.650;2022-09-09T13:40:00;2.03;;;0.88;;
14611;SDS011;7392;52.078;11.650;2022-09-09T13:42:29;2.75;;;1.20;;
14611;SDS011;7392;52.078;11.650;2022-09-09T13:45:01;2.87;;;1.20;;
14611;SDS011;7392;52.078;11.650;2022-09-09T13:47:32;2.80;;;1.23;;
14611;SDS011;7392;52.078;11.650;2022-09-09T13:50:09;2.30;;;1.13;;
14611;SDS011;7392;52.078;11.650;2022-09-09T13:52:46;1.47;;;0.93;;
14611;SDS011;7392;52.078;11.650;2022-09-09T13:55:13;2.35;;;1.00;;
14611;SDS011;7392;52.078;11.650;2022-09-09T13:57:50;1.05;;;0.80;;
14611;SDS011;7392;52.078;11.650;2022-09-09T14:00:18;3.43;;;1.40;;
14611;SDS011;7392;52.078;11.650;2022-09-09T14:02:48;2.10;;;0.80;;
14611;SDS011;7392;52.078;11.650;2022-09-09T14:05:16;1.50;;;0.87;;
14611;SDS011;7392;52.078;11.650;2022-09-09T14:07:46;1.10;;;0.70;;
14611;SDS011;7392;52.078;11.650;2022-09-09T14:10:18;2.10;;;1.03;;
14611;SDS011;7392;52.078;11.650;2022-09-09T14:12:47;2.10;;;1.20;;
14611;SDS011;7392;52.078;11.650;2022-09-09T14:15:15;2.67;;;1.00;;
14611;SDS011;7392;52.078;11.650;2022-09-09T14:17:43;2.00;;;0.90;;
14611;SDS011;7392;52.078;11.650;2022-09-09T14:20:14;2.77;;;1.00;;
14611;SDS011;7392;52.078;11.650;2022-09-09T14:22:44;3.93;;;1.03;;
14611;SDS011;7392;52.078;11.650;2022-09-09T14:25:12;3.80;;;1.33;;
14611;SDS011;7392;52.078;11.650;2022-09-09T14:27:40;4.13;;;1.40;;
14611;SDS011;7392;52.078;11.650;2022-09-09T14:30:08;3.47;;;1.13;;
14611;SDS011;7392;52.078;11.650;2022-09-09T14:32:37;2.67;;;1.10;;
14611;SDS011;7392;52.078;11.650;2022-09-09T14:35:05;2.97;;;1.20;;
14611;SDS011;7392;52.078;11.650;2022-09-09T14:37:34;2.43;;;1.00;;
14611;SDS011;7392;52.078;11.650;2022-09-09T14:40:02;1.77;;;0.90;;
14611;SDS011;7392;52.078;11.650;2022-09-09T14:42:30;1.47;;;0.73;;
14611;SDS011;7392;52.078;11.650;2022-09-09T14:44:58;1.70;;;0.73;;
14611;SDS011;7392;52.078;11.650;2022-09-09T14:47:25;2.53;;;1.10;;
14611;SDS011;7392;52.078;11.650;2022-09-09T14:49:53;2.97;;;1.00;;
14611;SDS011;7392;52.078;11.650;2022-09-09T14:52:21;1.33;;;0.80;;
14611;SDS011;7392;52.078;11.650;2022-09-09T14:54:50;1.30;;;0.73;;
14611;SDS011;7392;52.078;11.650;2022-09-09T14:57:17;2.00;;;0.80;;
14611;SDS011;7392;52.078;11.650;2022-09-09T14:59:45;1.37;;;0.70;;
14611;SDS011;7392;52.078;11.650;2022-09-09T15:02:13;0.97;;;0.70;;
14611;SDS011;7392;52.078;11.650;2022-09-09T15:04:41;1.67;;;0.70;;
14611;SDS011;7392;52.078;11.650;2022-09-09T15:07:09;1.30;;;0.73;;
14611;SDS011;7392;52.078;11.650;2022-09-09T15:09:37;0.90;;;0.47;;
14611;SDS011;7392;52.078;11.650;2022-09-09T15:12:06;2.20;;;0.70;;
14611;SDS011;7392;52.078;11.650;2022-09-09T15:14:34;1.17;;;0.70;;
14611;SDS011;7392;52.078;11.650;2022-09-09T15:17:02;1.57;;;0.80;;
14611;SDS011;7392;52.078;11.650;2022-09-09T15:19:30;2.47;;;0.70;;
14611;SDS011;7392;52.078;11.650;2022-09-09T15:21:58;1.87;;;0.80;;
14611;SDS011;7392;52.078;11.650;2022-09-09T15:24:27;1.83;;;0.90;;
14611;SDS011;7392;52.078;11.650;2022-09-09T15:26:55;1.10;;;0.70;;
14611;SDS011;7392;52.078;11.650;2022-09-09T15:29:24;1.17;;;0.50;;
14611;SDS011;7392;52.078;11.650;2022-09-09T15:31:52;1.00;;;0.60;;
14611;SDS011;7392;52.078;11.650;2022-09-09T15:34:21;1.20;;;0.70;;
14611;SDS011;7392;52.078;11.650;2022-09-09T15:36:49;1.70;;;0.80;;
14611;SDS011;7392;52.078;11.650;2022-09-09T15:39:17;1.47;;;0.83;;
14611;SDS011;7392;52.078;11.650;2022-09-09T15:41:46;1.93;;;1.20;;
14611;SDS011;7392;52.078;11.650;2022-09-09T15:44:15;2.83;;;1.13;;
14611;SDS011;7392;52.078;11.650;2022-09-09T15:46:45;2.73;;;1.20;;